createdAt,value
2022-12-03T00:00:55.098Z,8.77
2022-12-03T00:03:23.497Z,8.00
2022-12-03T00:05:52.085Z,10.48
2022-12-03T00:08:20.449Z,8.55
2022-12-03T00:10:48.741Z,12.98
2022-12-03T00:13:17.077Z,8.80
2022-12-03T00:15:46.839Z,8.20
2022-12-03T00:18:15.200Z,8.70
2022-12-03T00:20:43.508Z,9.68
2022-12-03T00:23:11.804Z,11.52
2022-12-03T00:25:40.164Z,11.80
2022-12-03T00:28:08.427Z,8.40
2022-12-03T00:30:36.805Z,8.52
2022-12-03T00:33:06.522Z,11.43
2022-12-03T00:35:34.994Z,9.43
2022-12-03T00:38:03.288Z,10.25
2022-12-03T00:40:31.608Z,10.27
2022-12-03T00:42:59.889Z,8.73
2022-12-03T00:45:28.182Z,8.95
2022-12-03T00:47:56.405Z,12.15
2022-12-03T00:50:26.406Z,9.13
2022-12-03T00:52:54.742Z,14.75
2022-12-03T00:55:23.089Z,12.25
2022-12-03T00:57:51.296Z,12.30
2022-12-03T01:00:24.583Z,10.93
2022-12-03T01:02:53.040Z,10.43
2022-12-03T01:05:21.906Z,10.18
2022-12-03T01:07:51.707Z,10.60
2022-12-03T01:10:20.218Z,12.02
2022-12-03T01:12:48.464Z,8.73
2022-12-03T01:15:17.306Z,10.70
2022-12-03T01:17:45.824Z,9.32
2022-12-03T01:20:14.526Z,9.18
2022-12-03T01:22:43.024Z,10.00
2022-12-03T01:25:13.364Z,9.52
2022-12-03T01:27:41.626Z,14.15
2022-12-03T01:30:12.067Z,9.00
2022-12-03T01:32:39.242Z,11.50
2022-12-03T01:35:08.204Z,10.02
2022-12-03T01:37:36.564Z,11.18
2022-12-03T01:40:05.918Z,9.52
2022-12-03T01:42:38.239Z,7.65
2022-12-03T01:45:07.884Z,10.18
2022-12-03T01:47:38.108Z,19.42
2022-12-03T01:50:09.861Z,13.45
2022-12-03T01:52:40.601Z,9.15
2022-12-03T01:55:14.829Z,10.65
2022-12-03T01:57:48.744Z,9.73
2022-12-03T02:00:19.132Z,8.95
2022-12-03T02:02:51.048Z,8.05
2022-12-03T02:05:21.867Z,12.95
2022-12-03T02:07:50.250Z,9.95
2022-12-03T02:10:22.687Z,7.47
2022-12-03T02:12:55.744Z,11.70
2022-12-03T02:15:24.337Z,12.45
2022-12-03T02:17:52.868Z,8.75
2022-12-03T02:20:21.486Z,9.73
2022-12-03T02:22:56.500Z,9.88
2022-12-03T02:25:28.047Z,8.25
2022-12-03T02:27:57.008Z,11.18
2022-12-03T02:30:27.332Z,8.18
2022-12-03T02:32:56.041Z,10.70
2022-12-03T02:35:26.259Z,8.27
2022-12-03T02:37:59.516Z,8.25
2022-12-03T02:40:33.730Z,10.55
2022-12-03T02:43:03.274Z,12.55
2022-12-03T02:45:34.181Z,7.97
2022-12-03T02:48:05.490Z,9.07
2022-12-03T02:50:35.071Z,10.23
2022-12-03T02:53:07.292Z,9.15
2022-12-03T02:55:38.220Z,10.20
2022-12-03T02:58:07.389Z,11.77
2022-12-03T03:00:37.374Z,8.43
2022-12-03T03:03:07.561Z,8.50
2022-12-03T03:05:37.656Z,7.75
2022-12-03T03:08:07.138Z,9.98
2022-12-03T03:10:39.181Z,8.05
2022-12-03T03:13:11.000Z,7.18
2022-12-03T03:15:40.802Z,8.77
2022-12-03T03:18:10.588Z,9.75
2022-12-03T03:20:39.203Z,8.38
2022-12-03T03:23:14.657Z,8.82
2022-12-03T03:25:46.840Z,10.00
2022-12-03T03:28:16.174Z,8.18
2022-12-03T03:30:45.713Z,8.90
2022-12-03T03:33:15.827Z,8.70
2022-12-03T03:35:46.504Z,8.40
2022-12-03T03:38:15.358Z,9.20
2022-12-03T03:40:45.480Z,8.40
2022-12-03T03:43:14.824Z,10.70
2022-12-03T03:45:43.634Z,9.23
2022-12-03T03:48:12.662Z,10.38
2022-12-03T03:50:42.152Z,14.40
2022-12-03T03:53:10.878Z,9.40
2022-12-03T03:55:40.072Z,11.20
2022-12-03T03:58:09.950Z,10.73
2022-12-03T04:00:38.469Z,16.15
2022-12-03T04:03:07.478Z,13.63
2022-12-03T04:05:35.664Z,9.93
2022-12-03T04:08:03.926Z,10.30
2022-12-03T04:10:49.715Z,9.85
2022-12-03T04:13:19.607Z,14.48
2022-12-03T04:15:47.847Z,12.75
2022-12-03T04:18:33.088Z,11.50
2022-12-03T04:21:15.058Z,13.40
2022-12-03T04:23:43.414Z,10.63
2022-12-03T04:26:29.050Z,11.75
2022-12-03T04:28:58.861Z,11.60
2022-12-03T04:31:44.313Z,11.60
2022-12-03T04:34:29.688Z,10.32
2022-12-03T04:36:58.057Z,11.63
2022-12-03T04:39:26.508Z,10.50
2022-12-03T04:41:54.704Z,9.48
2022-12-03T04:44:39.299Z,9.23
2022-12-03T04:47:11.975Z,11.55
2022-12-03T04:49:42.433Z,9.40
2022-12-03T04:52:11.497Z,9.27
2022-12-03T04:54:40.384Z,10.25
2022-12-03T04:57:10.062Z,10.30
2022-12-03T04:59:40.631Z,10.57
2022-12-03T05:02:09.501Z,11.10
2022-12-03T05:04:37.912Z,8.55
2022-12-03T05:07:06.093Z,11.70
2022-12-03T05:09:34.527Z,10.60
2022-12-03T05:12:03.956Z,10.30
2022-12-03T05:14:32.396Z,11.10
2022-12-03T05:17:02.245Z,12.05
2022-12-03T05:19:44.349Z,11.52
2022-12-03T05:22:12.725Z,12.60
2022-12-03T05:24:40.966Z,10.68
2022-12-03T05:27:09.403Z,9.63
2022-12-03T05:29:37.654Z,11.98
2022-12-03T05:32:07.753Z,10.30
2022-12-03T05:34:36.027Z,13.35
2022-12-03T05:37:04.397Z,11.82
2022-12-03T05:39:32.790Z,11.80
2022-12-03T05:42:18.343Z,15.57
2022-12-03T05:44:46.600Z,10.73
2022-12-03T05:47:16.270Z,13.25
2022-12-03T05:49:44.636Z,12.95
2022-12-03T05:52:12.848Z,19.80
2022-12-03T05:54:41.190Z,11.45
2022-12-03T05:57:09.387Z,12.65
2022-12-03T05:59:37.798Z,11.48
2022-12-03T06:02:06.080Z,12.35
2022-12-03T06:04:36.446Z,13.13
2022-12-03T06:07:06.618Z,14.80
2022-12-03T06:09:38.038Z,10.55
2022-12-03T06:12:07.157Z,21.05
2022-12-03T06:14:36.053Z,12.52
2022-12-03T06:17:04.907Z,15.18
2022-12-03T06:19:34.625Z,17.25
2022-12-03T06:22:04.314Z,17.73
2022-12-03T06:24:32.513Z,12.60
2022-12-03T06:27:00.736Z,13.85
2022-12-03T06:29:28.932Z,13.43
2022-12-03T06:31:57.689Z,13.13
2022-12-03T06:34:28.679Z,14.38
2022-12-03T06:36:57.037Z,12.82
2022-12-03T06:39:26.830Z,11.20
2022-12-03T06:41:55.249Z,10.85
2022-12-03T06:44:23.563Z,10.68
2022-12-03T06:46:52.043Z,11.20
2022-12-03T06:49:20.332Z,14.02
2022-12-03T06:51:48.650Z,14.43
2022-12-03T06:54:16.876Z,26.58
2022-12-03T06:56:47.394Z,15.18
2022-12-03T06:59:15.648Z,16.02
2022-12-03T07:01:44.421Z,13.38
2022-12-03T07:04:12.860Z,15.68
2022-12-03T07:06:41.241Z,13.30
2022-12-03T07:09:09.719Z,17.45
2022-12-03T07:11:41.167Z,19.55
2022-12-03T07:14:12.406Z,17.60
2022-12-03T07:16:43.529Z,13.68
2022-12-03T07:19:12.310Z,18.92
2022-12-03T07:21:40.602Z,19.85
2022-12-03T07:24:09.027Z,16.45
2022-12-03T07:26:37.491Z,20.23
2022-12-03T07:29:05.943Z,20.35
2022-12-03T07:31:35.816Z,16.88
2022-12-03T07:34:04.316Z,13.90
2022-12-03T07:36:32.629Z,17.17
2022-12-03T07:39:00.995Z,18.13
2022-12-03T07:41:29.303Z,19.30
2022-12-03T07:43:57.622Z,15.27
2022-12-03T07:46:26.086Z,16.63
2022-12-03T07:48:55.983Z,14.50
2022-12-03T07:51:30.482Z,15.05
2022-12-03T07:54:00.488Z,15.75
2022-12-03T07:56:28.775Z,17.80
2022-12-03T07:58:57.069Z,14.45
2022-12-03T08:01:25.424Z,15.02
2022-12-03T08:03:55.143Z,16.27
2022-12-03T08:06:23.429Z,14.98
2022-12-03T08:08:51.819Z,16.00
2022-12-03T08:11:20.227Z,15.57
2022-12-03T08:13:48.679Z,13.85
2022-12-03T08:16:20.545Z,20.10
2022-12-03T08:18:51.051Z,22.02
2022-12-03T08:21:22.640Z,17.92
2022-12-03T08:23:51.135Z,20.52
2022-12-03T08:26:25.118Z,21.38
2022-12-03T08:28:54.011Z,18.00
2022-12-03T08:31:29.327Z,16.50
2022-12-03T08:34:15.120Z,19.95
2022-12-03T08:36:44.923Z,16.17
2022-12-03T08:39:28.573Z,21.88
2022-12-03T08:42:17.470Z,21.15
2022-12-03T08:44:46.047Z,20.48
2022-12-03T08:47:20.251Z,17.85
2022-12-03T08:49:54.434Z,19.55
2022-12-03T08:52:31.515Z,25.45
2022-12-03T08:54:59.932Z,22.25
2022-12-03T08:57:30.566Z,17.15
2022-12-03T09:00:01.803Z,19.05
2022-12-03T09:02:34.772Z,18.77
2022-12-03T09:05:14.643Z,20.13
2022-12-03T09:07:44.568Z,15.32
2022-12-03T09:10:13.025Z,18.42
2022-12-03T09:12:41.355Z,21.25
2022-12-03T09:15:10.271Z,26.85
2022-12-03T09:17:38.706Z,17.25
2022-12-03T09:20:08.789Z,17.98
2022-12-03T09:22:37.026Z,17.92
2022-12-03T09:25:07.717Z,20.05
2022-12-03T09:27:36.027Z,17.10
2022-12-03T09:30:04.528Z,23.30
2022-12-03T09:32:33.022Z,19.90
2022-12-03T09:35:01.661Z,21.17
2022-12-03T09:37:29.966Z,17.50
2022-12-03T09:39:58.319Z,17.00
2022-12-03T09:42:28.426Z,16.85
2022-12-03T09:44:57.082Z,14.85
2022-12-03T09:47:25.460Z,16.48
2022-12-03T09:49:54.567Z,16.80
2022-12-03T09:52:26.880Z,15.32
2022-12-03T09:54:55.995Z,17.65
2022-12-03T09:57:24.569Z,16.08
2022-12-03T09:59:54.636Z,15.95
2022-12-03T10:02:26.504Z,16.92
2022-12-03T10:04:55.808Z,16.88
2022-12-03T10:07:24.763Z,19.77
2022-12-03T10:09:53.593Z,16.27
2022-12-03T10:12:25.536Z,17.20
2022-12-03T10:14:55.618Z,19.67
2022-12-03T10:17:24.034Z,17.52
2022-12-03T10:19:52.640Z,15.65
2022-12-03T10:22:21.153Z,15.70
2022-12-03T10:25:07.773Z,21.85
2022-12-03T10:27:36.186Z,16.38
2022-12-03T10:30:16.319Z,18.08
2022-12-03T10:32:46.283Z,18.38
2022-12-03T10:35:16.233Z,18.05
2022-12-03T10:38:02.023Z,15.80
2022-12-03T10:40:32.075Z,16.92
2022-12-03T10:43:15.811Z,18.90
2022-12-03T10:45:46.876Z,14.93
2022-12-03T10:48:17.571Z,22.30
2022-12-03T10:50:51.792Z,19.05
2022-12-03T10:53:21.832Z,15.75
2022-12-03T10:55:52.442Z,20.13
2022-12-03T10:58:26.138Z,15.90
2022-12-03T11:00:57.708Z,15.40
2022-12-03T11:03:27.677Z,14.93
2022-12-03T11:05:57.549Z,20.75
2022-12-03T11:08:28.097Z,19.23
2022-12-03T11:11:01.414Z,23.13
2022-12-03T11:13:46.987Z,21.85
2022-12-03T11:17:10.149Z,15.50
2022-12-03T11:19:52.122Z,24.75
2022-12-03T11:22:41.993Z,19.45
2022-12-03T11:25:46.014Z,16.35
2022-12-03T11:28:34.716Z,22.20
2022-12-03T11:31:09.251Z,20.20
2022-12-03T11:33:41.133Z,24.98
2022-12-03T11:36:15.598Z,24.42
2022-12-03T11:38:53.750Z,26.98
2022-12-03T11:41:25.480Z,24.05
2022-12-03T11:44:31.750Z,22.42
2022-12-03T11:47:13.017Z,23.20
2022-12-03T11:49:48.909Z,23.10
2022-12-03T11:52:31.889Z,24.73
2022-12-03T11:55:06.038Z,27.08
2022-12-03T11:57:39.913Z,24.17
2022-12-03T12:00:21.080Z,22.83
2022-12-03T12:02:50.298Z,21.48
2022-12-03T12:05:24.123Z,27.75
2022-12-03T12:07:52.764Z,27.52
2022-12-03T12:10:40.734Z,28.13
2022-12-03T12:13:28.795Z,20.67
2022-12-03T12:15:57.380Z,27.05
2022-12-03T12:18:39.607Z,30.73
2022-12-03T12:21:48.226Z,23.83
2022-12-03T12:24:36.094Z,21.58
2022-12-03T12:27:06.981Z,22.20
2022-12-03T12:29:35.349Z,21.92
2022-12-03T12:32:13.543Z,24.42
2022-12-03T12:34:43.133Z,23.35
2022-12-03T12:37:15.788Z,27.40
2022-12-03T12:39:44.229Z,23.88
2022-12-03T12:42:30.359Z,24.73
2022-12-03T12:45:02.497Z,26.20
2022-12-03T12:47:32.502Z,25.73
2022-12-03T12:50:01.224Z,25.40
2022-12-03T12:52:31.183Z,26.02
2022-12-03T12:55:04.668Z,33.28
2022-12-03T12:57:35.462Z,26.25
2022-12-03T13:00:05.964Z,21.73
2022-12-03T13:02:46.600Z,22.58
2022-12-03T13:05:15.298Z,22.83
2022-12-03T13:07:46.256Z,27.27
2022-12-03T13:10:37.318Z,22.45
2022-12-03T13:13:27.140Z,26.17
2022-12-03T13:16:01.946Z,27.67
2022-12-03T13:18:40.673Z,22.35
2022-12-03T13:21:20.605Z,26.52
2022-12-03T13:23:52.212Z,34.28
2022-12-03T13:26:38.068Z,26.83
2022-12-03T13:29:15.861Z,26.58
2022-12-03T13:31:51.232Z,33.85
2022-12-03T13:34:23.563Z,27.23
2022-12-03T13:36:58.067Z,26.83
2022-12-03T13:39:32.923Z,31.25
2022-12-03T13:42:33.461Z,29.17
2022-12-03T13:45:03.984Z,23.23
2022-12-03T13:47:33.486Z,28.13
2022-12-03T13:50:04.947Z,36.00
2022-12-03T13:52:35.363Z,34.53
2022-12-03T13:55:08.340Z,30.10
2022-12-03T13:57:36.618Z,29.60
2022-12-03T14:00:06.347Z,34.50
2022-12-03T14:02:34.806Z,32.95
2022-12-03T14:05:03.345Z,29.75
2022-12-03T14:07:31.658Z,36.22
2022-12-03T14:09:59.858Z,31.92
2022-12-03T14:12:33.931Z,26.35
2022-12-03T14:15:02.737Z,39.60
2022-12-03T14:17:31.635Z,28.65
2022-12-03T14:20:01.684Z,31.65
2022-12-03T14:22:30.137Z,28.85
2022-12-03T14:24:58.716Z,36.35
2022-12-03T14:27:28.658Z,31.23
2022-12-03T14:29:57.397Z,33.42
2022-12-03T14:32:26.016Z,28.50
2022-12-03T14:34:54.232Z,32.08
2022-12-03T14:37:22.634Z,29.80
2022-12-03T14:39:51.076Z,36.92
2022-12-03T14:42:18.586Z,37.20
2022-12-03T14:44:50.102Z,33.92
2022-12-03T14:47:19.982Z,43.85
2022-12-03T14:49:48.670Z,52.33
2022-12-03T14:52:17.309Z,46.53
2022-12-03T14:54:46.787Z,40.42
2022-12-03T14:57:16.618Z,33.13
2022-12-03T14:59:47.126Z,45.40
2022-12-03T15:02:17.008Z,33.35
2022-12-03T15:04:45.388Z,36.42
2022-12-03T15:07:13.620Z,34.28
2022-12-03T15:09:41.828Z,40.20
2022-12-03T15:12:10.039Z,36.97
2022-12-03T15:14:38.347Z,30.08
2022-12-03T15:17:06.709Z,32.47
2022-12-03T15:19:36.527Z,47.97
2022-12-03T15:22:04.914Z,31.63
2022-12-03T15:24:33.255Z,35.38
2022-12-03T15:27:01.524Z,34.47
2022-12-03T15:29:30.352Z,35.45
2022-12-03T15:31:59.542Z,29.40
2022-12-03T15:34:29.056Z,50.10
2022-12-03T15:36:58.898Z,38.03
2022-12-03T15:39:27.162Z,38.90
2022-12-03T15:41:55.384Z,36.20
2022-12-03T15:44:23.678Z,27.10
2022-12-03T15:46:52.046Z,32.00
2022-12-03T15:49:20.347Z,32.75
2022-12-03T15:51:48.545Z,37.17
2022-12-03T15:54:18.344Z,34.40
2022-12-03T15:56:46.715Z,37.75
2022-12-03T15:59:15.005Z,29.98
2022-12-03T16:01:43.368Z,34.00
2022-12-03T16:04:11.780Z,30.23
2022-12-03T16:06:40.136Z,27.80
2022-12-03T16:09:08.680Z,46.95
2022-12-03T16:11:38.496Z,31.90
2022-12-03T16:14:06.934Z,34.55
2022-12-03T16:16:35.304Z,30.85
2022-12-03T16:19:03.528Z,30.17
2022-12-03T16:21:31.975Z,41.95
2022-12-03T16:24:00.654Z,32.58
2022-12-03T16:26:30.762Z,29.25
2022-12-03T16:29:00.627Z,50.25
2022-12-03T16:31:29.014Z,27.70
2022-12-03T16:33:57.428Z,32.08
2022-12-03T16:36:25.991Z,36.00
2022-12-03T16:38:54.330Z,25.30
2022-12-03T16:41:22.748Z,29.52
2022-12-03T16:43:51.219Z,26.02
2022-12-03T16:46:26.483Z,36.15
2022-12-03T16:48:56.660Z,30.83
2022-12-03T16:51:25.710Z,34.58
2022-12-03T16:53:54.161Z,25.00
2022-12-03T16:56:22.829Z,36.70
2022-12-03T16:58:51.169Z,26.85
2022-12-03T17:01:21.314Z,28.85
2022-12-03T17:03:49.822Z,24.02
2022-12-03T17:06:18.283Z,26.10
2022-12-03T17:08:49.766Z,30.08
2022-12-03T17:11:19.078Z,29.75
2022-12-03T17:13:47.519Z,32.60
2022-12-03T17:16:15.965Z,28.42
2022-12-03T17:18:45.732Z,33.90
2022-12-03T17:21:14.022Z,28.42
2022-12-03T17:23:42.279Z,29.88
2022-12-03T17:26:10.654Z,32.13
2022-12-03T17:28:39.035Z,34.83
2022-12-03T17:31:07.565Z,28.98
2022-12-03T17:33:35.772Z,28.08
2022-12-03T17:36:06.314Z,31.58
2022-12-03T17:38:39.091Z,35.35
2022-12-03T17:41:08.741Z,34.03
2022-12-03T17:43:37.103Z,26.27
2022-12-03T17:46:06.904Z,27.75
2022-12-03T17:48:35.346Z,29.98
2022-12-03T17:51:05.390Z,32.85
2022-12-03T17:53:33.726Z,34.97
2022-12-03T17:56:02.226Z,32.58
2022-12-03T17:58:30.598Z,28.70
2022-12-03T18:01:02.868Z,32.10
2022-12-03T18:03:32.075Z,42.78
2022-12-03T18:06:00.810Z,34.17
2022-12-03T18:08:30.748Z,31.77
2022-12-03T18:10:59.216Z,27.50
2022-12-03T18:13:42.666Z,29.75
2022-12-03T18:16:11.266Z,37.30
2022-12-03T18:18:39.671Z,31.73
2022-12-03T18:21:08.387Z,33.65
2022-12-03T18:23:38.687Z,28.95
2022-12-03T18:26:07.930Z,28.60
2022-12-03T18:28:36.778Z,31.05
2022-12-03T18:31:07.866Z,31.90
2022-12-03T18:33:36.150Z,30.05
2022-12-03T18:36:04.948Z,28.30
2022-12-03T18:38:35.408Z,27.17
2022-12-03T18:41:05.412Z,29.52
2022-12-03T18:43:37.297Z,32.17
2022-12-03T18:46:31.338Z,32.95
2022-12-03T18:48:59.199Z,34.97
2022-12-03T18:51:28.883Z,28.83
2022-12-03T18:53:57.077Z,33.05
2022-12-03T18:56:26.983Z,32.63
2022-12-03T18:58:55.454Z,35.15
2022-12-03T19:01:24.617Z,27.65
2022-12-03T19:03:55.228Z,31.77
2022-12-03T19:06:23.613Z,24.42
2022-12-03T19:08:54.642Z,26.65
2022-12-03T19:11:23.641Z,29.75
2022-12-03T19:13:53.573Z,28.30
2022-12-03T19:16:22.000Z,28.95
2022-12-03T19:18:50.652Z,30.50
2022-12-03T19:21:19.090Z,29.98
2022-12-03T19:24:22.212Z,29.80
2022-12-03T19:26:35.981Z,26.17
2022-12-03T19:29:06.154Z,28.48
2022-12-03T19:31:34.698Z,36.40
2022-12-03T19:34:03.233Z,37.70
2022-12-03T19:36:33.086Z,31.63
2022-12-03T19:39:01.910Z,41.95
2022-12-03T19:41:31.756Z,29.80
2022-12-03T19:44:00.725Z,40.78
2022-12-03T19:46:30.964Z,29.48
2022-12-03T19:48:59.389Z,33.22
2022-12-03T19:51:36.053Z,39.60
2022-12-03T19:54:05.375Z,37.60
2022-12-03T19:56:34.105Z,34.25
2022-12-03T19:59:02.834Z,33.72
2022-12-03T20:01:35.367Z,36.60
2022-12-03T20:04:04.933Z,37.72
2022-12-03T20:06:35.212Z,40.13
2022-12-03T20:09:07.053Z,41.45
2022-12-03T20:11:36.644Z,39.10
2022-12-03T20:14:08.863Z,40.92
2022-12-03T20:16:38.981Z,33.00
2022-12-03T20:19:09.338Z,47.10
2022-12-03T20:21:38.741Z,46.40
2022-12-03T20:24:07.909Z,44.13
2022-12-03T20:26:36.325Z,47.45
2022-12-03T20:29:04.917Z,38.15
2022-12-03T20:31:33.729Z,36.30
2022-12-03T20:34:05.456Z,40.47
2022-12-03T20:36:34.516Z,36.33
2022-12-03T20:39:06.071Z,34.15
2022-12-03T20:41:37.015Z,46.28
2022-12-03T20:44:06.269Z,42.13
2022-12-03T20:46:34.986Z,36.30
2022-12-03T20:49:05.126Z,37.83
2022-12-03T20:51:34.218Z,35.00
2022-12-03T20:54:03.296Z,29.92
2022-12-03T20:56:33.403Z,37.05
2022-12-03T20:59:04.988Z,50.40
2022-12-03T21:01:34.592Z,36.05
2022-12-03T21:04:04.865Z,40.05
2022-12-03T21:06:34.237Z,32.97
2022-12-03T21:09:03.231Z,39.85
2022-12-03T21:11:34.123Z,43.35
2022-12-03T21:14:02.857Z,38.65
2022-12-03T21:17:05.785Z,57.83
2022-12-03T21:19:25.234Z,36.38
2022-12-03T21:21:53.843Z,37.95
2022-12-03T21:24:22.487Z,42.17
2022-12-03T21:26:51.176Z,40.97
2022-12-03T21:29:19.714Z,38.40
2022-12-03T21:31:48.085Z,37.92
2022-12-03T21:34:16.333Z,41.97
2022-12-03T21:36:46.225Z,38.30
2022-12-03T21:39:14.800Z,49.45
2022-12-03T21:42:34.597Z,43.42
2022-12-03T21:44:31.813Z,40.33
2022-12-03T21:47:09.219Z,37.63
2022-12-03T21:49:41.444Z,38.13
2022-12-03T21:52:11.571Z,48.75
2022-12-03T21:54:40.067Z,39.70
2022-12-03T21:57:08.381Z,35.13
2022-12-03T21:59:36.793Z,43.15
2022-12-03T22:02:05.758Z,37.05
2022-12-03T22:04:34.443Z,37.45
2022-12-03T22:07:03.070Z,38.72
2022-12-03T22:09:34.542Z,31.02
2022-12-03T22:12:02.958Z,40.50
2022-12-03T22:14:31.672Z,31.08
2022-12-03T22:17:00.016Z,37.08
2022-12-03T22:19:28.420Z,49.58
2022-12-03T22:21:56.718Z,37.88
2022-12-03T22:24:25.053Z,41.05
2022-12-03T22:26:55.213Z,35.17
2022-12-03T22:29:23.668Z,33.90
2022-12-03T22:31:52.401Z,36.65
2022-12-03T22:34:20.662Z,39.05
2022-12-03T22:36:49.008Z,44.22
2022-12-03T22:39:17.444Z,35.42
2022-12-03T22:41:46.180Z,37.92
2022-12-03T22:44:16.117Z,43.60
2022-12-03T22:46:44.558Z,41.60
2022-12-03T22:49:14.539Z,31.65
2022-12-03T22:51:45.982Z,46.92
2022-12-03T22:54:17.135Z,36.00
2022-12-03T22:56:49.389Z,46.72
2022-12-03T22:59:19.329Z,41.45
2022-12-03T23:01:47.999Z,44.75
2022-12-03T23:04:16.650Z,39.42
2022-12-03T23:06:44.939Z,44.10
2022-12-03T23:09:13.200Z,42.00
2022-12-03T23:11:41.521Z,44.67
2022-12-03T23:14:09.857Z,39.35
2022-12-03T23:16:41.035Z,45.45
2022-12-03T23:19:09.386Z,36.13
2022-12-03T23:21:37.922Z,36.20
2022-12-03T23:24:07.960Z,45.30
2022-12-03T23:26:38.054Z,35.63
2022-12-03T23:29:08.695Z,38.15
2022-12-03T23:31:38.834Z,40.00
2022-12-03T23:34:07.707Z,34.60
2022-12-03T23:36:36.696Z,41.20
2022-12-03T23:39:05.116Z,40.35
2022-12-03T23:41:33.492Z,33.38
2022-12-03T23:44:01.989Z,46.80
2022-12-03T23:46:30.457Z,52.35
2022-12-03T23:49:01.508Z,47.50
2022-12-03T23:51:29.981Z,45.97
2022-12-03T23:53:58.228Z,45.15
2022-12-03T23:56:29.285Z,37.53
2022-12-03T23:58:58.478Z,38.30
